Time;durP1;ratioP1;P1;durP2;ratioP2;P2;SDS_P1;SDS_P2;PMS_P1;PMS_P2;Temp;Humidity;BMP_temperature;BMP_pressure;BME280_temperature;BME280_humidity;BME280_pressure;Samples;Min_cycle;Max_cycle;Signal;HPM_P1;HPM_P2
2022/12/01 00:01:21;;;;;;;451.77;90.57;;;7.20;99.90;;;;;;5092265;28;20222;-53
2022/12/01 00:03:49;;;;;;;433.07;156.23;;;7.30;99.90;;;;;;5091373;28;20303;-53
2022/12/01 00:06:19;;;;;;;129.67;60.17;;;7.20;99.90;;;;;;5091626;28;20314;-54
2022/12/01 00:11:31;;;;;;;56.23;31.40;;;7.30;99.90;;;;;;5087225;28;20209;-53
2022/12/01 00:14:01;;;;;;;106.77;49.40;;;7.30;99.90;;;;;;5088705;28;20307;-53
2022/12/01 00:16:29;;;;;;;121.40;40.43;;;7.30;99.90;;;;;;5091896;28;20220;-53
2022/12/01 00:18:57;;;;;;;158.57;55.10;;;7.30;99.90;;;;;;5091637;28;20624;-53
2022/12/01 00:21:26;;;;;;;549.77;121.53;;;7.30;99.90;;;;;;5091768;28;20235;-52
2022/12/01 00:23:56;;;;;;;238.90;82.03;;;7.30;99.90;;;;;;5091057;28;20294;-53
2022/12/01 00:26:25;;;;;;;77.40;36.47;;;7.30;99.90;;;;;;5091601;28;20245;-52
2022/12/01 00:28:55;;;;;;;530.63;99.23;;;7.30;99.90;;;;;;5091746;28;20208;-51
2022/12/01 00:31:26;;;;;;;118.27;44.23;;;7.30;99.90;;;;;;5091736;28;20291;-53
2022/12/01 00:33:54;;;;;;;38.50;24.97;;;7.30;99.90;;;;;;5088408;28;20204;-53
2022/12/01 00:36:23;;;;;;;129.00;31.30;;;7.30;99.90;;;;;;5088078;28;20702;-53
2022/12/01 00:38:53;;;;;;;425.37;105.73;;;7.30;99.90;;;;;;5079856;28;20709;-53
2022/12/01 00:41:22;;;;;;;18.37;16.33;;;7.30;99.90;;;;;;5083060;28;20235;-53
2022/12/01 00:43:50;;;;;;;298.23;84.03;;;7.30;99.90;;;;;;5090700;28;20765;-53
2022/12/01 00:46:18;;;;;;;1092.20;181.93;;;7.30;99.90;;;;;;5091450;28;20296;-52
2022/12/01 00:48:48;;;;;;;154.30;41.97;;;7.20;99.90;;;;;;5091249;28;20554;-52
2022/12/01 00:51:16;;;;;;;186.30;56.77;;;7.30;99.90;;;;;;5091407;28;20294;-53
2022/12/01 00:53:44;;;;;;;383.00;87.63;;;7.20;99.90;;;;;;5087424;28;20648;-53
2022/12/01 00:56:13;;;;;;;381.13;91.27;;;7.20;99.90;;;;;;5090797;28;20216;-52
2022/12/01 00:58:41;;;;;;;54.80;25.67;;;7.20;99.90;;;;;;5070277;28;20231;-52
2022/12/01 01:01:09;;;;;;;80.20;37.47;;;7.30;99.90;;;;;;5089981;28;20200;-52
2022/12/01 01:03:38;;;;;;;522.97;101.20;;;7.20;99.90;;;;;;5090099;28;20204;-50
2022/12/01 01:06:09;;;;;;;322.33;73.33;;;7.30;99.90;;;;;;5078365;28;20304;-51
2022/12/01 01:08:37;;;;;;;17.90;16.33;;;7.20;99.90;;;;;;5081359;28;20654;-51
2022/12/01 01:11:06;;;;;;;1165.00;219.07;;;7.30;99.90;;;;;;5090887;28;20291;-53
2022/12/01 01:13:35;;;;;;;1028.23;162.47;;;7.20;99.90;;;;;;5090254;28;20320;-52
2022/12/01 01:16:06;;;;;;;1261.73;190.30;;;7.20;99.90;;;;;;5090853;28;20295;-53
2022/12/01 01:18:34;;;;;;;29.13;22.33;;;7.20;99.90;;;;;;5090654;28;20265;-53
2022/12/01 01:21:05;;;;;;;171.07;57.60;;;7.20;99.90;;;;;;5090653;28;20307;-50
2022/12/01 01:23:34;;;;;;;481.23;89.27;;;7.20;99.90;;;;;;5077546;28;20295;-51
2022/12/01 01:26:04;;;;;;;116.27;43.33;;;7.10;99.90;;;;;;5089105;28;20295;-51
2022/12/01 01:28:32;;;;;;;105.10;43.10;;;7.20;99.90;;;;;;5082576;28;20239;-51
2022/12/01 01:31:05;;;;;;;92.07;43.30;;;7.10;99.90;;;;;;5090269;28;20295;-51
2022/12/01 01:33:33;;;;;;;679.90;170.53;;;7.20;99.90;;;;;;5090519;28;20212;-50
2022/12/01 01:36:02;;;;;;;62.97;34.90;;;7.20;99.90;;;;;;5090624;28;20236;-51
2022/12/01 01:38:31;;;;;;;1308.27;232.77;;;7.20;99.90;;;;;;5076044;28;20224;-50
2022/12/01 01:41:00;;;;;;;54.47;22.43;;;7.20;99.90;;;;;;5077240;28;20591;-50
2022/12/01 01:43:45;;;;;;;281.33;93.33;;;7.20;99.90;;;;;;5089549;28;20287;-50
2022/12/01 01:46:16;;;;;;;25.13;22.73;;;7.20;99.90;;;;;;5090286;28;20243;-50
2022/12/01 01:48:49;;;;;;;73.77;24.77;;;7.20;99.90;;;;;;5090244;28;20199;-50
2022/12/01 01:51:26;;;;;;;132.73;39.43;;;7.30;99.90;;;;;;5090005;28;20250;-51
2022/12/01 01:53:58;;;;;;;49.23;30.27;;;7.30;99.90;;;;;;5061424;28;20213;-51
2022/12/01 01:56:29;;;;;;;276.93;73.50;;;7.30;99.90;;;;;;5089612;28;20258;-51
2022/12/01 01:59:00;;;;;;;193.07;57.13;;;7.20;99.90;;;;;;5083938;28;20268;-51
2022/12/01 02:01:28;;;;;;;354.03;103.80;;;7.20;99.90;;;;;;5080631;28;20242;-51
2022/12/01 02:03:56;;;;;;;27.53;24.60;;;7.20;99.90;;;;;;5089371;28;20243;-51
2022/12/01 02:06:25;;;;;;;30.73;25.33;;;7.30;99.90;;;;;;5075523;28;20318;-51
2022/12/01 02:08:53;;;;;;;116.00;45.50;;;7.30;99.90;;;;;;5071046;28;20284;-51
2022/12/01 02:11:57;;;;;;;1999.90;491.73;;;7.40;99.90;;;;;;5083357;28;20245;-51
2022/12/01 02:14:41;;;;;;;1569.37;333.23;;;7.40;99.90;;;;;;5074604;28;20204;-50
2022/12/01 02:17:20;;;;;;;170.30;64.57;;;7.30;99.90;;;;;;5068311;28;20670;-52
2022/12/01 02:20:30;;;;;;;409.97;135.83;;;7.20;99.90;;;;;;5062108;28;20235;-51
2022/12/01 02:23:22;;;;;;;53.23;34.60;;;7.20;99.90;;;;;;5084453;28;20225;-51
2022/12/01 02:26:06;;;;;;;48.60;41.37;;;7.20;99.90;;;;;;5063489;28;20233;-51
2022/12/01 02:28:56;;;;;;;203.00;64.40;;;7.20;99.90;;;;;;5065911;28;20718;-51
2022/12/01 02:31:36;;;;;;;186.30;74.73;;;7.30;99.90;;;;;;5089037;28;20295;-51
2022/12/01 02:34:11;;;;;;;169.63;45.97;;;7.30;99.90;;;;;;5088890;28;20912;-50
2022/12/01 02:36:46;;;;;;;583.33;153.00;;;7.20;99.90;;;;;;5089395;28;20309;-51
2022/12/01 02:39:20;;;;;;;172.30;73.27;;;7.20;99.90;;;;;;5079367;28;20626;-51
2022/12/01 02:41:52;;;;;;;39.70;30.57;;;7.10;99.90;;;;;;5074213;28;20203;-51
2022/12/01 02:44:26;;;;;;;39.47;30.73;;;7.20;99.90;;;;;;5088801;28;20296;-51
2022/12/01 02:46:58;;;;;;;231.03;65.30;;;7.20;99.90;;;;;;5089241;28;20315;-51
2022/12/01 02:49:30;;;;;;;108.70;61.47;;;7.10;99.90;;;;;;5089387;28;20239;-51
2022/12/01 02:51:59;;;;;;;87.57;47.07;;;7.20;99.90;;;;;;5088711;28;20291;-51
2022/12/01 02:54:31;;;;;;;48.93;35.23;;;7.20;99.90;;;;;;5089014;28;20294;-52
2022/12/01 02:56:59;;;;;;;1539.50;291.63;;;7.10;99.90;;;;;;5083726;28;20311;-50
2022/12/01 02:59:27;;;;;;;47.57;33.93;;;7.20;99.90;;;;;;5068836;28;20232;-51
2022/12/01 03:02:09;;;;;;;86.40;50.30;;;7.20;99.90;;;;;;5068363;28;20271;-51
2022/12/01 03:04:54;;;;;;;52.57;35.03;;;7.20;99.90;;;;;;5060082;28;20211;-50
2022/12/01 03:07:44;;;;;;;61.43;41.13;;;7.20;99.90;;;;;;5068593;28;20267;-51
2022/12/01 03:10:19;;;;;;;63.23;39.63;;;7.20;99.90;;;;;;5068673;28;20212;-51
2022/12/01 03:12:59;;;;;;;214.03;78.40;;;7.20;99.90;;;;;;5058710;28;20307;-51
2022/12/01 03:15:35;;;;;;;363.40;93.97;;;7.10;99.90;;;;;;5068516;28;20738;-51
2022/12/01 03:18:16;;;;;;;86.43;47.77;;;7.10;99.90;;;;;;5088975;28;20316;-51
2022/12/01 03:20:52;;;;;;;766.27;147.60;;;7.10;99.90;;;;;;5088907;28;20289;-51
2022/12/01 03:23:23;;;;;;;165.83;61.87;;;7.10;99.90;;;;;;5084856;28;20299;-51
2022/12/01 03:25:54;;;;;;;145.20;68.83;;;7.00;99.90;;;;;;5083502;28;20200;-51
2022/12/01 03:28:28;;;;;;;164.23;68.13;;;7.00;99.90;;;;;;5083744;28;20482;-52
2022/12/01 03:31:01;;;;;;;111.73;46.77;;;7.00;99.90;;;;;;5088707;28;20219;-51
2022/12/01 03:33:35;;;;;;;54.23;38.50;;;7.00;99.90;;;;;;5070831;28;20204;-51
2022/12/01 03:36:08;;;;;;;221.70;91.80;;;7.00;99.90;;;;;;5069210;28;20291;-52
2022/12/01 03:38:37;;;;;;;418.50;104.73;;;7.00;99.90;;;;;;5072455;28;20304;-51
2022/12/01 03:41:09;;;;;;;326.57;81.17;;;7.00;99.90;;;;;;5071773;28;20299;-50
2022/12/01 03:43:41;;;;;;;69.33;41.77;;;7.00;99.90;;;;;;5071385;28;20213;-51
2022/12/01 03:46:16;;;;;;;165.53;80.83;;;7.00;99.90;;;;;;5072103;28;20292;-51
2022/12/01 03:48:46;;;;;;;472.73;108.20;;;7.00;99.90;;;;;;5071661;28;20200;-51
2022/12/01 03:51:20;;;;;;;102.93;50.03;;;7.00;99.90;;;;;;5071756;28;20286;-51
2022/12/01 03:53:55;;;;;;;139.77;70.70;;;7.00;99.90;;;;;;5071647;28;20243;-52
2022/12/01 03:56:27;;;;;;;356.40;137.30;;;7.00;99.90;;;;;;5071732;28;20207;-52
2022/12/01 03:58:58;;;;;;;62.37;43.47;;;7.00;99.90;;;;;;5072117;28;20220;-52
2022/12/01 04:01:31;;;;;;;130.03;46.47;;;6.90;99.90;;;;;;5069639;28;20205;-52
2022/12/01 04:04:06;;;;;;;187.97;76.20;;;6.90;99.90;;;;;;5071353;28;20310;-54
2022/12/01 04:06:34;;;;;;;82.60;42.17;;;6.90;99.90;;;;;;5070920;28;20590;-54
2022/12/01 04:09:03;;;;;;;70.20;39.63;;;7.00;99.90;;;;;;5072043;28;20292;-52
2022/12/01 04:14:17;;;;;;;162.20;71.63;;;6.90;99.90;;;;;;5063640;28;20244;-51
2022/12/01 04:16:45;;;;;;;281.83;91.43;;;6.90;99.90;;;;;;5071670;28;20268;-51
2022/12/01 04:19:15;;;;;;;136.60;62.53;;;7.00;99.90;;;;;;5071554;28;20311;-51
2022/12/01 04:21:43;;;;;;;161.70;63.63;;;7.00;99.90;;;;;;5070964;28;20291;-52
2022/12/01 04:24:12;;;;;;;148.10;69.73;;;6.90;99.90;;;;;;5071429;28;20208;-53
2022/12/01 04:26:40;;;;;;;98.27;62.63;;;6.90;99.90;;;;;;5071055;28;20227;-51
2022/12/01 04:29:11;;;;;;;151.37;70.13;;;6.90;99.90;;;;;;5071437;28;20644;-51
2022/12/01 04:31:39;;;;;;;276.37;100.73;;;6.90;99.90;;;;;;5060626;28;20295;-51
2022/12/01 04:34:07;;;;;;;167.93;74.67;;;6.90;99.90;;;;;;5071110;28;20316;-51
2022/12/01 04:36:37;;;;;;;231.70;82.97;;;6.90;99.90;;;;;;5069135;28;20243;-52
2022/12/01 04:39:05;;;;;;;74.77;43.13;;;7.00;99.90;;;;;;5070961;28;20260;-52
2022/12/01 04:41:33;;;;;;;92.87;48.37;;;7.00;99.90;;;;;;5070766;28;20642;-51
2022/12/01 04:44:01;;;;;;;91.20;47.83;;;7.00;99.90;;;;;;5063168;28;20300;-52
2022/12/01 04:46:29;;;;;;;96.20;47.77;;;6.90;99.90;;;;;;5070722;28;20314;-52
2022/12/01 04:48:57;;;;;;;422.43;137.43;;;6.90;99.90;;;;;;5070167;28;20650;-51
2022/12/01 04:51:25;;;;;;;219.73;85.17;;;6.90;99.90;;;;;;5070642;28;20217;-51
2022/12/01 04:53:55;;;;;;;1853.70;355.03;;;6.90;99.90;;;;;;5070229;28;20294;-51
2022/12/01 04:56:23;;;;;;;69.00;41.77;;;6.90;99.90;;;;;;5069161;28;20299;-51
2022/12/01 04:58:51;;;;;;;80.37;46.83;;;6.90;99.90;;;;;;5070622;28;20264;-51
2022/12/01 05:01:19;;;;;;;196.27;80.40;;;6.90;99.90;;;;;;5070518;28;20215;-52
2022/12/01 05:03:49;;;;;;;76.73;46.40;;;6.90;99.90;;;;;;5069857;28;20205;-50
2022/12/01 05:06:19;;;;;;;70.70;41.40;;;6.90;99.90;;;;;;5070510;28;20223;-52
2022/12/01 05:08:48;;;;;;;77.27;46.30;;;6.90;99.90;;;;;;5071043;28;20359;-51
2022/12/01 05:11:18;;;;;;;126.47;60.83;;;6.90;99.90;;;;;;5056802;28;20248;-51
2022/12/01 05:13:47;;;;;;;152.20;78.77;;;6.90;99.90;;;;;;5069857;28;20205;-51
2022/12/01 05:16:17;;;;;;;91.37;52.40;;;6.90;99.90;;;;;;5070255;28;20241;-51
2022/12/01 05:18:49;;;;;;;74.53;44.47;;;6.90;99.90;;;;;;5070252;28;20232;-51
2022/12/01 05:21:17;;;;;;;74.50;41.63;;;7.00;99.90;;;;;;5070545;28;20208;-51
2022/12/01 05:23:45;;;;;;;107.10;60.73;;;6.90;99.90;;;;;;5070204;28;20204;-50
2022/12/01 05:26:13;;;;;;;79.20;44.47;;;7.00;99.90;;;;;;5070181;28;20287;-52
2022/12/01 05:28:42;;;;;;;87.90;53.77;;;7.00;99.90;;;;;;5070330;28;20208;-52
2022/12/01 05:31:10;;;;;;;74.80;45.20;;;7.00;99.90;;;;;;5070239;28;20301;-51
2022/12/01 05:33:39;;;;;;;111.93;57.27;;;6.90;99.90;;;;;;5069400;28;20323;-52
2022/12/01 05:36:07;;;;;;;83.30;48.37;;;6.80;99.90;;;;;;5069495;28;20212;-52
2022/12/01 05:38:35;;;;;;;547.47;194.50;;;6.90;99.90;;;;;;5070279;28;20287;-51
2022/12/01 05:41:03;;;;;;;1070.93;238.97;;;6.90;99.90;;;;;;5069701;28;20216;-51
2022/12/01 05:43:31;;;;;;;83.53;54.97;;;6.80;99.90;;;;;;5069289;28;20670;-51
2022/12/01 05:46:01;;;;;;;754.10;218.90;;;6.80;99.90;;;;;;5069867;28;20304;-51
2022/12/01 05:48:29;;;;;;;95.50;62.07;;;6.80;99.90;;;;;;5069407;28;20224;-51
2022/12/01 05:50:57;;;;;;;98.47;59.93;;;6.70;99.90;;;;;;5069900;28;20315;-51
2022/12/01 05:53:25;;;;;;;114.40;55.37;;;6.70;99.90;;;;;;5069091;28;20291;-51
2022/12/01 05:55:54;;;;;;;128.90;63.70;;;6.70;99.90;;;;;;5069833;28;20229;-51
2022/12/01 05:58:22;;;;;;;111.83;57.80;;;6.70;99.90;;;;;;5069766;28;20231;-51
2022/12/01 06:00:50;;;;;;;87.20;52.80;;;6.70;99.90;;;;;;5069523;28;20221;-51
2022/12/01 06:03:20;;;;;;;157.03;74.47;;;6.70;99.90;;;;;;5068860;28;20296;-51
2022/12/01 06:05:48;;;;;;;372.53;153.47;;;6.70;99.90;;;;;;5069644;28;20205;-50
2022/12/01 06:08:16;;;;;;;391.00;111.27;;;6.60;99.90;;;;;;5069273;28;20318;-51
2022/12/01 06:10:45;;;;;;;152.73;80.77;;;6.60;99.90;;;;;;5065753;28;20288;-51
2022/12/01 06:13:13;;;;;;;242.77;96.20;;;6.60;99.90;;;;;;5069200;28;20796;-51
2022/12/01 06:15:41;;;;;;;87.00;50.70;;;6.60;99.90;;;;;;5058736;28;20320;-51
2022/12/01 06:18:09;;;;;;;85.87;48.40;;;6.60;99.90;;;;;;5068732;28;20851;-50
2022/12/01 06:20:38;;;;;;;1263.33;314.83;;;6.60;99.90;;;;;;5068455;28;20238;-51
2022/12/01 06:23:06;;;;;;;166.87;82.27;;;6.60;99.90;;;;;;5068530;28;20295;-52
2022/12/01 06:25:34;;;;;;;1011.17;192.97;;;6.50;99.90;;;;;;5069424;28;20311;-50
2022/12/01 06:28:02;;;;;;;205.00;81.93;;;6.40;99.90;;;;;;5069090;28;20235;-51
2022/12/01 06:30:31;;;;;;;539.93;161.70;;;6.30;99.90;;;;;;5069141;28;20294;-51
2022/12/01 06:32:59;;;;;;;457.23;119.67;;;6.40;99.90;;;;;;5068469;28;20225;-51
2022/12/01 06:35:27;;;;;;;91.83;63.60;;;6.40;99.90;;;;;;5068387;28;20294;-51
2022/12/01 06:37:56;;;;;;;208.10;87.67;;;6.30;99.90;;;;;;5069216;28;20229;-51
2022/12/01 06:40:24;;;;;;;77.03;44.27;;;6.40;99.90;;;;;;5068729;28;20229;-51
2022/12/01 06:42:52;;;;;;;1719.63;390.50;;;6.30;99.90;;;;;;5068458;28;20234;-51
2022/12/01 06:45:20;;;;;;;245.40;93.50;;;6.30;99.90;;;;;;5068783;28;20204;-51
2022/12/01 06:47:52;;;;;;;96.63;61.00;;;6.20;99.90;;;;;;5068710;28;20312;-51
2022/12/01 06:50:20;;;;;;;104.70;55.93;;;6.20;99.90;;;;;;5068785;28;20840;-51
2022/12/01 06:52:48;;;;;;;366.17;148.13;;;6.20;99.90;;;;;;5068534;28;20207;-51
2022/12/01 06:55:18;;;;;;;236.80;95.47;;;6.20;99.90;;;;;;5068699;28;20303;-50
2022/12/01 06:57:46;;;;;;;96.40;63.00;;;6.20;99.90;;;;;;5068929;28;20237;-51
2022/12/01 07:00:15;;;;;;;206.20;91.53;;;6.20;99.90;;;;;;5070243;28;20306;-52
2022/12/01 07:02:44;;;;;;;168.03;87.60;;;6.20;99.90;;;;;;5058780;28;20253;-51
2022/12/01 07:05:12;;;;;;;280.67;109.40;;;6.10;99.90;;;;;;5072941;28;20212;-51
2022/12/01 07:07:40;;;;;;;1468.30;351.27;;;6.20;99.90;;;;;;5072481;28;20310;-51
2022/12/01 07:10:10;;;;;;;1702.47;404.73;;;6.20;99.90;;;;;;5073111;28;20200;-52
2022/12/01 07:12:40;;;;;;;107.47;70.57;;;6.20;99.90;;;;;;5072295;28;20302;-51
2022/12/01 07:15:09;;;;;;;976.90;222.20;;;6.20;99.90;;;;;;5063458;28;20747;-51
2022/12/01 07:17:37;;;;;;;372.20;112.57;;;6.10;99.90;;;;;;5072414;28;20237;-51
2022/12/01 07:20:06;;;;;;;176.87;80.73;;;6.00;99.90;;;;;;5072404;28;20267;-51
2022/12/01 07:22:35;;;;;;;75.87;46.60;;;6.00;99.90;;;;;;5072190;28;20247;-51
2022/12/01 07:25:03;;;;;;;574.53;203.63;;;6.00;99.90;;;;;;5072826;28;20213;-51
2022/12/01 07:27:31;;;;;;;881.57;202.70;;;5.90;99.90;;;;;;5068003;28;20316;-54
2022/12/01 07:30:01;;;;;;;1288.73;280.57;;;6.00;99.90;;;;;;5071685;28;20603;-54
2022/12/01 07:32:29;;;;;;;250.10;123.90;;;6.00;99.90;;;;;;5071833;28;20245;-53
2022/12/01 07:34:57;;;;;;;107.57;54.73;;;6.00;99.90;;;;;;5071567;28;20209;-54
2022/12/01 07:37:25;;;;;;;142.97;73.13;;;6.00;99.90;;;;;;5066289;28;20233;-53
2022/12/01 07:39:53;;;;;;;96.63;61.03;;;5.90;99.90;;;;;;5069672;28;20219;-54
2022/12/01 07:42:21;;;;;;;267.43;113.50;;;6.00;99.90;;;;;;5071490;28;20306;-51
2022/12/01 07:44:49;;;;;;;601.90;205.97;;;6.00;99.90;;;;;;5071589;28;20215;-50
2022/12/01 07:47:19;;;;;;;620.77;155.83;;;6.00;99.90;;;;;;5076752;28;20310;-50
2022/12/01 07:49:47;;;;;;;185.10;81.37;;;6.00;99.90;;;;;;5091863;28;21050;-51
2022/12/01 07:52:15;;;;;;;483.20;131.03;;;6.00;99.90;;;;;;5091420;28;20242;-51
2022/12/01 07:54:43;;;;;;;94.00;65.20;;;6.00;99.90;;;;;;5088202;28;20221;-51
2022/12/01 07:57:13;;;;;;;274.00;108.80;;;6.00;99.90;;;;;;5084528;28;20225;-51
2022/12/01 07:59:41;;;;;;;94.67;61.90;;;6.00;99.90;;;;;;5092194;28;20261;-51
2022/12/01 08:02:09;;;;;;;277.43;106.63;;;6.00;99.90;;;;;;5091483;28;20359;-51
2022/12/01 08:04:39;;;;;;;490.50;187.03;;;6.00;99.90;;;;;;5087897;28;20269;-51
2022/12/01 08:07:07;;;;;;;81.60;52.33;;;5.90;99.90;;;;;;5085027;28;20353;-51
2022/12/01 08:09:36;;;;;;;177.37;75.67;;;5.90;99.90;;;;;;5092218;28;20291;-51
2022/12/01 08:12:04;;;;;;;793.90;241.07;;;6.00;99.90;;;;;;5083579;28;20289;-52
2022/12/01 08:14:32;;;;;;;501.33;194.47;;;6.00;99.90;;;;;;5091197;28;20210;-52
2022/12/01 08:17:00;;;;;;;327.47;136.43;;;6.00;99.90;;;;;;5091939;28;20655;-52
2022/12/01 08:19:28;;;;;;;471.30;148.43;;;6.00;99.90;;;;;;5091888;28;20208;-52
2022/12/01 08:21:57;;;;;;;101.63;61.77;;;6.00;99.90;;;;;;5091446;28;20225;-52
2022/12/01 08:24:25;;;;;;;235.27;88.57;;;6.00;99.90;;;;;;5085675;28;20693;-50
2022/12/01 08:26:54;;;;;;;96.77;60.73;;;6.00;99.90;;;;;;5091568;28;20316;-51
2022/12/01 08:29:22;;;;;;;67.93;43.30;;;6.00;99.90;;;;;;5091687;28;20293;-51
2022/12/01 08:31:50;;;;;;;1999.90;814.23;;;6.10;99.90;;;;;;5090954;28;20681;-52
2022/12/01 08:34:18;;;;;;;967.40;269.13;;;6.10;99.90;;;;;;5083017;28;20211;-51
2022/12/01 08:36:46;;;;;;;1242.33;306.07;;;6.00;99.90;;;;;;5063515;28;20224;-51
2022/12/01 08:39:16;;;;;;;78.83;50.83;;;6.00;99.90;;;;;;5091439;28;20207;-51
2022/12/01 08:41:44;;;;;;;380.07;132.60;;;5.90;99.90;;;;;;5065965;28;20323;-52
2022/12/01 08:44:12;;;;;;;944.30;254.40;;;5.90;99.90;;;;;;5070993;28;20242;-51
2022/12/01 08:46:40;;;;;;;471.00;136.50;;;5.90;99.90;;;;;;5071133;28;20768;-51
2022/12/01 08:49:08;;;;;;;1999.90;677.37;;;5.70;99.90;;;;;;5071005;28;20265;-52
2022/12/01 08:51:36;;;;;;;1163.83;241.70;;;5.70;99.90;;;;;;5071126;28;20290;-51
2022/12/01 08:54:04;;;;;;;919.97;194.53;;;5.70;99.90;;;;;;5070157;28;20309;-51
2022/12/01 08:56:36;;;;;;;1999.90;492.00;;;5.60;99.90;;;;;;5070476;28;20221;-53
2022/12/01 08:59:04;;;;;;;163.90;62.80;;;5.60;99.90;;;;;;5064721;28;20290;-52
2022/12/01 09:01:33;;;;;;;460.67;114.57;;;5.70;99.90;;;;;;5068310;28;20305;-51
2022/12/01 09:04:07;;;;;;;85.07;60.87;;;5.60;99.90;;;;;;5070335;28;20209;-51
2022/12/01 09:06:39;;;;;;;123.83;53.93;;;5.60;99.90;;;;;;5070408;28;20239;-51
2022/12/01 09:09:08;;;;;;;142.10;86.63;;;5.70;99.90;;;;;;5070596;28;20679;-52
2022/12/01 09:11:38;;;;;;;67.90;46.47;;;5.70;99.90;;;;;;5070735;28;20211;-51
2022/12/01 09:14:06;;;;;;;799.40;207.03;;;5.70;99.90;;;;;;5070273;28;20215;-51
2022/12/01 09:16:34;;;;;;;557.60;147.60;;;5.70;99.90;;;;;;5070419;28;20790;-52
2022/12/01 09:19:03;;;;;;;155.97;79.03;;;5.70;99.90;;;;;;5070139;28;20232;-51
2022/12/01 09:21:33;;;;;;;1069.50;303.20;;;5.70;99.90;;;;;;5070101;28;20266;-51
2022/12/01 09:24:02;;;;;;;73.43;47.93;;;5.70;99.90;;;;;;5069378;28;20638;-51
2022/12/01 09:26:30;;;;;;;201.53;96.73;;;5.70;99.90;;;;;;5069882;28;20787;-51
2022/12/01 09:29:02;;;;;;;977.87;274.13;;;5.70;99.90;;;;;;5070362;28;20300;-52
2022/12/01 09:31:30;;;;;;;80.10;60.80;;;5.60;99.90;;;;;;5070308;28;20282;-52
2022/12/01 09:34:00;;;;;;;150.90;62.00;;;5.60;99.90;;;;;;5069463;28;20205;-51
2022/12/01 09:36:29;;;;;;;1999.90;531.93;;;5.70;99.90;;;;;;5058457;28;20311;-51
2022/12/01 09:38:58;;;;;;;127.13;78.13;;;5.80;99.90;;;;;;5069970;28;20299;-52
2022/12/01 09:41:29;;;;;;;149.63;64.90;;;5.70;99.90;;;;;;5070009;28;20345;-52
2022/12/01 09:44:04;;;;;;;105.23;52.90;;;5.70;99.90;;;;;;5068858;28;20238;-52
2022/12/01 09:46:36;;;;;;;82.90;49.20;;;5.70;99.90;;;;;;5070525;28;20264;-52
2022/12/01 09:49:12;;;;;;;115.97;71.00;;;5.80;99.90;;;;;;5069970;28;20214;-52
2022/12/01 09:51:40;;;;;;;1568.70;379.87;;;5.80;99.90;;;;;;5069682;28;20244;-51
2022/12/01 09:54:12;;;;;;;170.70;84.83;;;5.80;99.90;;;;;;5070154;28;20212;-50
2022/12/01 09:56:44;;;;;;;1615.27;334.13;;;5.80;99.90;;;;;;5070141;28;20220;-51
2022/12/01 09:59:21;;;;;;;72.13;53.53;;;5.80;99.90;;;;;;5070126;28;20233;-52
2022/12/01 10:01:54;;;;;;;69.40;45.17;;;5.80;99.90;;;;;;5068425;28;20275;-52
2022/12/01 10:04:29;;;;;;;150.23;74.33;;;5.70;99.90;;;;;;5064489;28;20204;-52
2022/12/01 10:07:02;;;;;;;296.27;83.57;;;5.80;99.90;;;;;;5060746;28;20938;-52
2022/12/01 10:09:38;;;;;;;187.13;85.07;;;5.80;99.90;;;;;;5069889;28;20280;-52
2022/12/01 10:12:13;;;;;;;1999.90;518.10;;;5.70;99.90;;;;;;5069434;28;20232;-51
2022/12/01 10:14:45;;;;;;;765.87;211.57;;;5.80;99.90;;;;;;5069481;28;20693;-52
2022/12/01 10:17:28;;;;;;;454.77;156.53;;;5.80;99.90;;;;;;5063036;28;20711;-54
2022/12/01 10:20:02;;;;;;;562.10;193.80;;;5.70;99.90;;;;;;5057262;28;20748;-52
2022/12/01 10:23:06;;;;;;;136.97;65.90;;;5.70;99.90;;;;;;5068092;28;20338;-50
2022/12/01 10:25:44;;;;;;;369.80;114.67;;;5.70;99.90;;;;;;5061561;28;20227;-52
2022/12/01 10:28:33;;;;;;;181.27;76.27;;;5.70;99.90;;;;;;5069123;28;20316;-52
2022/12/01 10:31:09;;;;;;;155.60;94.10;;;5.80;99.90;;;;;;5067461;28;20573;-51
2022/12/01 10:33:48;;;;;;;478.03;146.90;;;5.80;99.90;;;;;;5068499;28;20647;-52
2022/12/01 10:36:16;;;;;;;116.80;61.43;;;5.80;99.90;;;;;;5067714;28;20293;-51
2022/12/01 10:38:44;;;;;;;137.27;72.03;;;5.70;99.90;;;;;;5069117;28;20657;-50
2022/12/01 10:41:15;;;;;;;211.93;98.17;;;5.80;99.90;;;;;;5068549;28;20293;-51
2022/12/01 10:43:47;;;;;;;1036.53;248.50;;;5.90;99.90;;;;;;5067677;28;20200;-51
2022/12/01 10:46:23;;;;;;;1464.93;327.23;;;5.90;99.90;;;;;;5068999;28;20683;-51
2022/12/01 10:48:56;;;;;;;71.17;50.33;;;5.90;99.90;;;;;;5068181;28;20210;-51
2022/12/01 10:51:26;;;;;;;1999.90;630.90;;;5.80;99.90;;;;;;5068602;28;20249;-52
2022/12/01 10:53:59;;;;;;;102.83;66.33;;;5.90;99.90;;;;;;5068555;28;20601;-51
2022/12/01 10:56:27;;;;;;;437.43;129.40;;;5.90;99.90;;;;;;5068751;28;20211;-52
2022/12/01 10:58:58;;;;;;;762.27;261.30;;;5.80;99.90;;;;;;5065636;28;20234;-52
2022/12/01 11:01:30;;;;;;;445.10;171.30;;;5.80;99.90;;;;;;5068682;28;20294;-52
2022/12/01 11:04:03;;;;;;;298.03;116.83;;;5.80;99.90;;;;;;5068274;28;20272;-52
2022/12/01 11:06:32;;;;;;;1133.57;239.53;;;5.80;99.90;;;;;;5068584;28;20325;-51
2022/12/01 11:09:04;;;;;;;1999.90;599.83;;;5.70;99.90;;;;;;5068052;28;20304;-50
2022/12/01 11:11:34;;;;;;;1999.90;724.60;;;5.80;99.90;;;;;;5067824;28;20233;-52
2022/12/01 11:14:05;;;;;;;1999.90;956.27;;;5.70;99.90;;;;;;5061266;28;20217;-51
2022/12/01 11:16:41;;;;;;;1970.87;483.93;;;5.70;99.90;;;;;;5068515;28;20310;-52
2022/12/01 11:19:29;;;;;;;1511.33;324.83;;;5.60;99.90;;;;;;5067602;28;20214;-52
2022/12/01 11:21:59;;;;;;;1999.90;756.53;;;5.50;99.90;;;;;;5057831;28;20706;-52
2022/12/01 11:24:40;;;;;;;873.83;256.37;;;5.50;99.90;;;;;;5067830;28;20296;-52
2022/12/01 11:27:16;;;;;;;1999.90;792.70;;;5.60;99.90;;;;;;5068390;28;20311;-51
2022/12/01 11:29:46;;;;;;;636.83;165.33;;;5.60;99.90;;;;;;5067270;28;20291;-51
2022/12/01 11:32:22;;;;;;;635.63;161.33;;;5.60;99.90;;;;;;5065106;28;20203;-53
2022/12/01 11:34:55;;;;;;;1999.90;961.50;;;5.40;99.90;;;;;;5064997;28;20227;-52
2022/12/01 11:37:25;;;;;;;1605.00;355.30;;;5.50;99.90;;;;;;5058059;28;20317;-52
2022/12/01 11:39:53;;;;;;;763.63;203.67;;;5.40;99.90;;;;;;5066582;28;20349;-52
2022/12/01 11:42:25;;;;;;;1999.90;670.87;;;5.40;99.90;;;;;;5067586;28;20835;-53
2022/12/01 11:44:55;;;;;;;827.70;283.93;;;5.40;99.90;;;;;;5068139;28;20294;-52
2022/12/01 11:47:26;;;;;;;220.50;98.23;;;5.30;99.90;;;;;;5069343;28;20233;-52
2022/12/01 11:49:56;;;;;;;147.23;64.53;;;5.40;99.90;;;;;;5072293;28;20234;-51
2022/12/01 11:52:28;;;;;;;243.37;94.83;;;5.40;99.90;;;;;;5065708;28;20221;-52
2022/12/01 11:54:59;;;;;;;171.53;67.27;;;5.40;99.90;;;;;;5071799;28;20208;-52
2022/12/01 11:57:35;;;;;;;1311.17;328.07;;;5.40;99.90;;;;;;5071351;28;20785;-51
2022/12/01 12:00:13;;;;;;;1999.90;505.03;;;5.40;99.90;;;;;;5066887;28;20263;-52
2022/12/01 12:02:51;;;;;;;149.73;76.23;;;5.40;99.90;;;;;;5067025;28;20226;-52
2022/12/01 12:05:54;;;;;;;69.33;52.13;;;5.40;99.90;;;;;;5071576;28;20233;-51
2022/12/01 12:08:59;;;;;;;1943.83;416.03;;;5.40;99.90;;;;;;5071675;28;20207;-50
2022/12/01 12:11:37;;;;;;;725.13;182.93;;;5.30;99.90;;;;;;5059420;28;20576;-51
2022/12/01 12:14:28;;;;;;;1959.80;519.17;;;5.30;99.90;;;;;;5070856;28;20205;-52
2022/12/01 12:17:13;;;;;;;1914.37;396.73;;;5.30;99.90;;;;;;5071725;28;20230;-51
2022/12/01 12:19:59;;;;;;;1399.63;315.50;;;5.10;99.90;;;;;;5071218;28;20674;-51
2022/12/01 12:22:45;;;;;;;1107.97;244.13;;;5.10;99.90;;;;;;5070072;28;20318;-51
2022/12/01 12:25:30;;;;;;;142.30;78.87;;;5.10;99.90;;;;;;5071106;28;20246;-52
2022/12/01 12:28:19;;;;;;;1976.80;518.27;;;5.20;99.90;;;;;;5070433;28;20308;-51
2022/12/01 12:30:57;;;;;;;1304.30;281.77;;;5.20;99.90;;;;;;5065132;28;20843;-52
2022/12/01 12:34:02;;;;;;;1462.10;310.60;;;5.20;99.90;;;;;;5070779;28;20236;-52
2022/12/01 12:36:42;;;;;;;99.93;67.77;;;5.00;99.90;;;;;;5043764;28;20315;-51
2022/12/01 12:39:28;;;;;;;377.13;153.30;;;5.00;99.90;;;;;;5070573;28;20329;-51
2022/12/01 12:41:57;;;;;;;1999.90;724.13;;;5.00;99.90;;;;;;5067298;28;20670;-52
2022/12/01 12:44:45;;;;;;;1549.47;430.43;;;5.10;99.90;;;;;;5064589;28;20319;-51
2022/12/01 12:47:24;;;;;;;147.77;73.57;;;5.10;99.90;;;;;;5070332;28;20225;-52
2022/12/01 12:49:59;;;;;;;262.50;103.80;;;5.10;99.90;;;;;;5070765;28;20201;-52
2022/12/01 12:52:33;;;;;;;1999.90;682.20;;;5.10;99.90;;;;;;5070271;28;20240;-52